sensor_id;sensor_type;location;lat;lon;timestamp;temperature;humidity
19000;DHT22;9633;50.980;13.850;2022-10-18T00:00:23;12.60;99.90
19000;DHT22;9633;50.980;13.850;2022-10-18T00:01:57;12.60;99.90
19000;DHT22;9633;50.980;13.850;2022-10-18T00:03:29;12.60;99.90
19000;DHT22;9633;50.980;13.850;2022-10-18T00:05:02;12.60;99.90
19000;DHT22;9633;50.980;13.850;2022-10-18T00:06:35;12.70;99.90
19000;DHT22;9633;50.980;13.850;2022-10-18T00:08:14;12.70;99.90
19000;DHT22;9633;50.980;13.850;2022-10-18T00:09:47;12.70;99.90
19000;DHT22;9633;50.980;13.850;2022-10-18T00:11:21;12.60;99.90
19000;DHT22;9633;50.980;13.850;2022-10-18T00:12:54;12.60;99.90
19000;DHT22;9633;50.980;13.850;2022-10-18T00:14:28;12.50;99.90
19000;DHT22;9633;50.980;13.850;2022-10-18T00:16:04;12.40;99.90
19000;DHT22;9633;50.980;13.850;2022-10-18T00:17:42;12.40;99.90
19000;DHT22;9633;50.980;13.850;2022-10-18T00:19:15;12.40;99.90
19000;DHT22;9633;50.980;13.850;2022-10-18T00:20:56;12.40;99.90
19000;DHT22;9633;50.980;13.850;2022-10-18T00:22:29;12.40;99.90
19000;DHT22;9633;50.980;13.850;2022-10-18T00:24:04;12.40;99.90
19000;DHT22;9633;50.980;13.850;2022-10-18T00:25:37;12.40;99.90
19000;DHT22;9633;50.980;13.850;2022-10-18T00:27:10;12.40;99.90
19000;DHT22;9633;50.980;13.850;2022-10-18T00:28:44;12.30;99.90
19000;DHT22;9633;50.980;13.850;2022-10-18T00:30:18;12.30;99.90
19000;DHT22;9633;50.980;13.850;2022-10-18T00:31:51;12.50;99.90
19000;DHT22;9633;50.980;13.850;2022-10-18T00:33:24;12.40;99.90
19000;DHT22;9633;50.980;13.850;2022-10-18T00:34:57;12.30;99.90
19000;DHT22;9633;50.980;13.850;2022-10-18T00:36:32;12.30;99.90
19000;DHT22;9633;50.980;13.850;2022-10-18T00:38:05;12.30;99.90
19000;DHT22;9633;50.980;13.850;2022-10-18T00:39:39;12.30;99.90
19000;DHT22;9633;50.980;13.850;2022-10-18T00:41:14;12.40;99.90
19000;DHT22;9633;50.980;13.850;2022-10-18T00:42:47;12.40;99.90
19000;DHT22;9633;50.980;13.850;2022-10-18T00:46:34;12.50;99.90
19000;DHT22;9633;50.980;13.850;2022-10-18T00:48:07;12.50;99.90
19000;DHT22;9633;50.980;13.850;2022-10-18T00:49:43;12.50;99.90
19000;DHT22;9633;50.980;13.850;2022-10-18T00:51:19;12.50;99.90
19000;DHT22;9633;50.980;13.850;2022-10-18T00:52:54;12.60;99.90
19000;DHT22;9633;50.980;13.850;2022-10-18T00:54:30;12.60;99.90
19000;DHT22;9633;50.980;13.850;2022-10-18T00:56:03;12.60;99.90
19000;DHT22;9633;50.980;13.850;2022-10-18T00:57:37;12.70;99.90
19000;DHT22;9633;50.980;13.850;2022-10-18T00:59:11;12.70;99.90
19000;DHT22;9633;50.980;13.850;2022-10-18T01:00:45;12.70;99.90
19000;DHT22;9633;50.980;13.850;2022-10-18T01:02:20;12.70;99.90
19000;DHT22;9633;50.980;13.850;2022-10-18T01:03:53;12.70;99.90
19000;DHT22;9633;50.980;13.850;2022-10-18T01:05:26;12.70;99.90
19000;DHT22;9633;50.980;13.850;2022-10-18T01:07:03;12.70;99.90
19000;DHT22;9633;50.980;13.850;2022-10-18T01:08:59;12.70;99.90
19000;DHT22;9633;50.980;13.850;2022-10-18T01:10:41;12.70;99.90
19000;DHT22;9633;50.980;13.850;2022-10-18T01:12:22;12.70;99.90
19000;DHT22;9633;50.980;13.850;2022-10-18T01:14:03;12.60;99.90
19000;DHT22;9633;50.980;13.850;2022-10-18T01:15:48;12.60;99.90
19000;DHT22;9633;50.980;13.850;2022-10-18T01:17:29;12.70;99.90
19000;DHT22;9633;50.980;13.850;2022-10-18T01:19:12;12.70;99.90
19000;DHT22;9633;50.980;13.850;2022-10-18T01:21:05;12.70;99.90
19000;DHT22;9633;50.980;13.850;2022-10-18T01:22:43;12.70;99.90
19000;DHT22;9633;50.980;13.850;2022-10-18T01:24:54;12.60;99.90
19000;DHT22;9633;50.980;13.850;2022-10-18T01:26:39;12.60;99.90
19000;DHT22;9633;50.980;13.850;2022-10-18T01:28:28;12.60;99.90
19000;DHT22;9633;50.980;13.850;2022-10-18T01:30:30;12.60;99.90
19000;DHT22;9633;50.980;13.850;2022-10-18T01:32:07;12.60;99.90
19000;DHT22;9633;50.980;13.850;2022-10-18T01:33:44;12.60;99.90
19000;DHT22;9633;50.980;13.850;2022-10-18T01:35:23;12.60;99.90
19000;DHT22;9633;50.980;13.850;2022-10-18T01:36:58;12.60;99.90
19000;DHT22;9633;50.980;13.850;2022-10-18T01:38:33;12.50;99.90
19000;DHT22;9633;50.980;13.850;2022-10-18T01:40:11;12.50;99.90
19000;DHT22;9633;50.980;13.850;2022-10-18T01:41:46;12.40;99.90
19000;DHT22;9633;50.980;13.850;2022-10-18T01:43:22;12.40;99.90
19000;DHT22;9633;50.980;13.850;2022-10-18T01:44:56;12.20;99.90
19000;DHT22;9633;50.980;13.850;2022-10-18T01:46:30;12.20;99.90
19000;DHT22;9633;50.980;13.850;2022-10-18T01:48:05;12.10;99.90
19000;DHT22;9633;50.980;13.850;2022-10-18T01:49:37;12.10;99.90
19000;DHT22;9633;50.980;13.850;2022-10-18T01:51:10;12.10;99.90
19000;DHT22;9633;50.980;13.850;2022-10-18T01:52:47;12.10;99.90
19000;DHT22;9633;50.980;13.850;2022-10-18T01:54:23;12.00;99.90
19000;DHT22;9633;50.980;13.850;2022-10-18T01:58:15;11.90;99.90
19000;DHT22;9633;50.980;13.850;2022-10-18T01:59:55;11.90;99.90
19000;DHT22;9633;50.980;13.850;2022-10-18T02:01:40;11.90;99.90
19000;DHT22;9633;50.980;13.850;2022-10-18T02:03:18;11.80;99.90
19000;DHT22;9633;50.980;13.850;2022-10-18T02:04:58;11.70;99.90
19000;DHT22;9633;50.980;13.850;2022-10-18T02:06:37;11.70;99.90
19000;DHT22;9633;50.980;13.850;2022-10-18T02:08:17;11.60;99.90
19000;DHT22;9633;50.980;13.850;2022-10-18T02:10:04;11.50;99.90
19000;DHT22;9633;50.980;13.850;2022-10-18T02:11:40;11.50;99.90
19000;DHT22;9633;50.980;13.850;2022-10-18T02:13:17;11.40;99.90
19000;DHT22;9633;50.980;13.850;2022-10-18T02:14:50;11.40;99.90
19000;DHT22;9633;50.980;13.850;2022-10-18T02:16:28;11.40;99.90
19000;DHT22;9633;50.980;13.850;2022-10-18T02:18:09;11.40;99.90
19000;DHT22;9633;50.980;13.850;2022-10-18T02:19:45;11.50;99.90
19000;DHT22;9633;50.980;13.850;2022-10-18T02:21:18;11.50;99.90
19000;DHT22;9633;50.980;13.850;2022-10-18T02:22:54;11.60;99.90
19000;DHT22;9633;50.980;13.850;2022-10-18T02:24:33;11.70;99.90
19000;DHT22;9633;50.980;13.850;2022-10-18T02:26:07;11.70;99.90
19000;DHT22;9633;50.980;13.850;2022-10-18T02:27:40;11.80;99.90
19000;DHT22;9633;50.980;13.850;2022-10-18T02:29:14;12.00;99.90
19000;DHT22;9633;50.980;13.850;2022-10-18T02:31:01;12.00;99.90
19000;DHT22;9633;50.980;13.850;2022-10-18T02:32:39;12.10;99.90
19000;DHT22;9633;50.980;13.850;2022-10-18T02:34:18;12.20;99.90
19000;DHT22;9633;50.980;13.850;2022-10-18T02:35:55;12.20;99.90
19000;DHT22;9633;50.980;13.850;2022-10-18T02:37:33;12.30;99.90
19000;DHT22;9633;50.980;13.850;2022-10-18T02:39:10;12.30;99.90
19000;DHT22;9633;50.980;13.850;2022-10-18T02:40:45;12.30;99.90
19000;DHT22;9633;50.980;13.850;2022-10-18T02:42:18;12.20;99.90
19000;DHT22;9633;50.980;13.850;2022-10-18T02:43:51;12.10;99.90
19000;DHT22;9633;50.980;13.850;2022-10-18T02:45:24;12.20;99.90
19000;DHT22;9633;50.980;13.850;2022-10-18T02:46:58;12.20;99.90
19000;DHT22;9633;50.980;13.850;2022-10-18T02:48:30;12.10;99.90
19000;DHT22;9633;50.980;13.850;2022-10-18T02:50:05;12.10;99.90
19000;DHT22;9633;50.980;13.850;2022-10-18T02:51:39;12.10;99.90
19000;DHT22;9633;50.980;13.850;2022-10-18T02:53:12;12.00;99.90
19000;DHT22;9633;50.980;13.850;2022-10-18T02:54:44;12.10;99.90
19000;DHT22;9633;50.980;13.850;2022-10-18T02:56:17;12.10;99.90
19000;DHT22;9633;50.980;13.850;2022-10-18T02:57:50;12.00;99.90
19000;DHT22;9633;50.980;13.850;2022-10-18T02:59:23;12.00;99.90
19000;DHT22;9633;50.980;13.850;2022-10-18T03:00:55;11.90;99.90
19000;DHT22;9633;50.980;13.850;2022-10-18T03:02:28;11.90;99.90
19000;DHT22;9633;50.980;13.850;2022-10-18T03:04:02;11.80;99.90
19000;DHT22;9633;50.980;13.850;2022-10-18T03:05:35;11.70;99.90
19000;DHT22;9633;50.980;13.850;2022-10-18T03:07:09;11.60;99.90
19000;DHT22;9633;50.980;13.850;2022-10-18T03:08:42;11.60;99.90
19000;DHT22;9633;50.980;13.850;2022-10-18T03:10:15;11.60;99.90
19000;DHT22;9633;50.980;13.850;2022-10-18T03:11:48;11.60;99.90
19000;DHT22;9633;50.980;13.850;2022-10-18T03:13:21;11.60;99.90
19000;DHT22;9633;50.980;13.850;2022-10-18T03:14:53;11.70;99.90
19000;DHT22;9633;50.980;13.850;2022-10-18T03:16:26;11.60;99.90
19000;DHT22;9633;50.980;13.850;2022-10-18T03:17:59;11.60;99.90
19000;DHT22;9633;50.980;13.850;2022-10-18T03:19:32;11.60;99.90
19000;DHT22;9633;50.980;13.850;2022-10-18T03:21:07;11.70;99.90
19000;DHT22;9633;50.980;13.850;2022-10-18T03:22:40;11.70;99.90
19000;DHT22;9633;50.980;13.850;2022-10-18T03:24:12;11.80;99.90
19000;DHT22;9633;50.980;13.850;2022-10-18T03:25:45;11.70;99.90
19000;DHT22;9633;50.980;13.850;2022-10-18T03:27:17;11.60;99.90
19000;DHT22;9633;50.980;13.850;2022-10-18T03:28:50;11.60;99.90
19000;DHT22;9633;50.980;13.850;2022-10-18T03:30:24;11.50;99.90
19000;DHT22;9633;50.980;13.850;2022-10-18T03:31:56;11.50;99.90
19000;DHT22;9633;50.980;13.850;2022-10-18T03:33:29;11.40;99.90
19000;DHT22;9633;50.980;13.850;2022-10-18T03:35:02;11.50;99.90
19000;DHT22;9633;50.980;13.850;2022-10-18T03:36:36;11.50;99.90
19000;DHT22;9633;50.980;13.850;2022-10-18T03:38:12;11.50;99.90
19000;DHT22;9633;50.980;13.850;2022-10-18T03:39:45;11.50;99.90
19000;DHT22;9633;50.980;13.850;2022-10-18T03:41:18;11.50;99.90
19000;DHT22;9633;50.980;13.850;2022-10-18T03:42:51;11.50;99.90
19000;DHT22;9633;50.980;13.850;2022-10-18T03:44:24;11.50;99.90
19000;DHT22;9633;50.980;13.850;2022-10-18T03:45:57;11.50;99.90
19000;DHT22;9633;50.980;13.850;2022-10-18T03:47:29;11.60;99.90
19000;DHT22;9633;50.980;13.850;2022-10-18T03:49:02;11.60;99.90
19000;DHT22;9633;50.980;13.850;2022-10-18T03:50:35;11.60;99.90
19000;DHT22;9633;50.980;13.850;2022-10-18T03:52:09;11.60;99.90
19000;DHT22;9633;50.980;13.850;2022-10-18T03:53:42;11.50;99.90
19000;DHT22;9633;50.980;13.850;2022-10-18T03:55:14;11.40;99.90
19000;DHT22;9633;50.980;13.850;2022-10-18T03:56:47;11.40;99.90
19000;DHT22;9633;50.980;13.850;2022-10-18T03:58:21;11.50;99.90
19000;DHT22;9633;50.980;13.850;2022-10-18T03:59:54;11.50;99.90
19000;DHT22;9633;50.980;13.850;2022-10-18T04:01:27;11.50;99.90
19000;DHT22;9633;50.980;13.850;2022-10-18T04:03:01;11.50;99.90
19000;DHT22;9633;50.980;13.850;2022-10-18T04:04:34;11.50;99.90
19000;DHT22;9633;50.980;13.850;2022-10-18T04:06:07;11.50;99.90
19000;DHT22;9633;50.980;13.850;2022-10-18T04:07:42;11.50;99.90
19000;DHT22;9633;50.980;13.850;2022-10-18T04:09:14;11.50;99.90
19000;DHT22;9633;50.980;13.850;2022-10-18T04:10:47;11.50;99.90
19000;DHT22;9633;50.980;13.850;2022-10-18T04:12:20;11.60;99.90
19000;DHT22;9633;50.980;13.850;2022-10-18T04:13:52;11.50;99.90
19000;DHT22;9633;50.980;13.850;2022-10-18T04:15:25;11.60;99.90
19000;DHT22;9633;50.980;13.850;2022-10-18T04:16:58;11.60;99.90
19000;DHT22;9633;50.980;13.850;2022-10-18T04:18:31;11.80;99.90
19000;DHT22;9633;50.980;13.850;2022-10-18T04:20:05;11.70;99.90
19000;DHT22;9633;50.980;13.850;2022-10-18T04:21:38;11.80;99.90
19000;DHT22;9633;50.980;13.850;2022-10-18T04:23:12;11.90;99.90
19000;DHT22;9633;50.980;13.850;2022-10-18T04:24:45;12.00;99.90
19000;DHT22;9633;50.980;13.850;2022-10-18T04:26:18;12.00;99.90
19000;DHT22;9633;50.980;13.850;2022-10-18T04:27:51;12.00;99.90
19000;DHT22;9633;50.980;13.850;2022-10-18T04:29:25;12.00;99.90
19000;DHT22;9633;50.980;13.850;2022-10-18T04:30:58;12.10;99.90
19000;DHT22;9633;50.980;13.850;2022-10-18T04:32:31;12.10;99.90
19000;DHT22;9633;50.980;13.850;2022-10-18T04:34:05;12.20;99.90
19000;DHT22;9633;50.980;13.850;2022-10-18T04:35:38;12.30;99.90
19000;DHT22;9633;50.980;13.850;2022-10-18T04:37:10;12.40;99.90
19000;DHT22;9633;50.980;13.850;2022-10-18T04:38:45;12.40;99.90
19000;DHT22;9633;50.980;13.850;2022-10-18T04:40:18;12.40;99.90
19000;DHT22;9633;50.980;13.850;2022-10-18T04:41:52;12.50;99.90
19000;DHT22;9633;50.980;13.850;2022-10-18T04:43:25;12.50;99.90
19000;DHT22;9633;50.980;13.850;2022-10-18T04:44:58;12.60;99.90
19000;DHT22;9633;50.980;13.850;2022-10-18T04:46:31;12.60;99.90
19000;DHT22;9633;50.980;13.850;2022-10-18T04:48:04;12.60;99.90
19000;DHT22;9633;50.980;13.850;2022-10-18T04:49:38;12.60;99.90
19000;DHT22;9633;50.980;13.850;2022-10-18T04:51:11;12.60;99.90
19000;DHT22;9633;50.980;13.850;2022-10-18T04:52:44;12.60;99.90
19000;DHT22;9633;50.980;13.850;2022-10-18T04:54:18;12.60;99.90
19000;DHT22;9633;50.980;13.850;2022-10-18T04:55:55;12.60;99.90
19000;DHT22;9633;50.980;13.850;2022-10-18T04:57:28;12.60;99.90
19000;DHT22;9633;50.980;13.850;2022-10-18T04:59:02;12.60;99.90
19000;DHT22;9633;50.980;13.850;2022-10-18T05:00:36;12.60;99.90
19000;DHT22;9633;50.980;13.850;2022-10-18T05:02:11;12.60;99.90
19000;DHT22;9633;50.980;13.850;2022-10-18T05:03:44;12.60;99.90
19000;DHT22;9633;50.980;13.850;2022-10-18T05:05:17;12.70;99.90
19000;DHT22;9633;50.980;13.850;2022-10-18T05:06:50;12.60;99.90
19000;DHT22;9633;50.980;13.850;2022-10-18T05:08:23;12.60;99.90
19000;DHT22;9633;50.980;13.850;2022-10-18T05:09:57;12.70;99.90
19000;DHT22;9633;50.980;13.850;2022-10-18T05:11:30;12.70;99.90
19000;DHT22;9633;50.980;13.850;2022-10-18T05:13:03;12.70;99.90
19000;DHT22;9633;50.980;13.850;2022-10-18T05:14:36;12.70;99.90
19000;DHT22;9633;50.980;13.850;2022-10-18T05:16:09;12.70;99.90
19000;DHT22;9633;50.980;13.850;2022-10-18T05:17:42;12.70;99.90
19000;DHT22;9633;50.980;13.850;2022-10-18T05:19:15;12.60;99.90
19000;DHT22;9633;50.980;13.850;2022-10-18T05:20:49;12.70;99.90
19000;DHT22;9633;50.980;13.850;2022-10-18T05:22:22;12.60;99.90
19000;DHT22;9633;50.980;13.850;2022-10-18T05:23:55;12.60;99.90
19000;DHT22;9633;50.980;13.850;2022-10-18T05:25:29;12.60;99.90
19000;DHT22;9633;50.980;13.850;2022-10-18T05:27:02;12.60;99.90
19000;DHT22;9633;50.980;13.850;2022-10-18T05:28:36;12.60;99.90
19000;DHT22;9633;50.980;13.850;2022-10-18T05:30:11;12.60;99.90
19000;DHT22;9633;50.980;13.850;2022-10-18T05:31:44;12.60;99.90
19000;DHT22;9633;50.980;13.850;2022-10-18T05:33:17;12.60;99.90
19000;DHT22;9633;50.980;13.850;2022-10-18T05:34:50;12.60;99.90
19000;DHT22;9633;50.980;13.850;2022-10-18T05:36:23;12.60;99.90
19000;DHT22;9633;50.980;13.850;2022-10-18T05:37:57;12.60;99.90
19000;DHT22;9633;50.980;13.850;2022-10-18T05:39:29;12.60;99.90
19000;DHT22;9633;50.980;13.850;2022-10-18T05:41:04;12.60;99.90
19000;DHT22;9633;50.980;13.850;2022-10-18T05:42:37;12.60;99.90
19000;DHT22;9633;50.980;13.850;2022-10-18T05:44:10;12.60;99.90
19000;DHT22;9633;50.980;13.850;2022-10-18T05:45:47;12.60;99.90
19000;DHT22;9633;50.980;13.850;2022-10-18T05:47:20;12.60;99.90
19000;DHT22;9633;50.980;13.850;2022-10-18T05:48:53;12.60;99.90
19000;DHT22;9633;50.980;13.850;2022-10-18T05:50:26;12.60;99.90
19000;DHT22;9633;50.980;13.850;2022-10-18T05:51:59;12.70;99.90
19000;DHT22;9633;50.980;13.850;2022-10-18T05:53:32;12.70;99.90
19000;DHT22;9633;50.980;13.850;2022-10-18T05:55:09;12.70;99.90
19000;DHT22;9633;50.980;13.850;2022-10-18T05:56:43;12.70;99.90
19000;DHT22;9633;50.980;13.850;2022-10-18T05:58:16;12.70;99.90
19000;DHT22;9633;50.980;13.850;2022-10-18T05:59:49;12.80;99.90
19000;DHT22;9633;50.980;13.850;2022-10-18T06:01:22;12.80;99.90
19000;DHT22;9633;50.980;13.850;2022-10-18T06:02:55;12.80;99.90
19000;DHT22;9633;50.980;13.850;2022-10-18T06:04:31;12.90;99.90
19000;DHT22;9633;50.980;13.850;2022-10-18T06:06:06;12.90;99.90
19000;DHT22;9633;50.980;13.850;2022-10-18T06:07:40;13.00;99.90
19000;DHT22;9633;50.980;13.850;2022-10-18T06:09:13;13.00;99.90
19000;DHT22;9633;50.980;13.850;2022-10-18T06:10:46;13.10;99.90
19000;DHT22;9633;50.980;13.850;2022-10-18T06:12:19;13.30;99.90
19000;DHT22;9633;50.980;13.850;2022-10-18T06:13:52;13.40;99.90
19000;DHT22;9633;50.980;13.850;2022-10-18T06:15:25;13.40;99.90
19000;DHT22;9633;50.980;13.850;2022-10-18T06:16:59;13.50;99.90
19000;DHT22;9633;50.980;13.850;2022-10-18T06:18:32;13.60;99.90
19000;DHT22;9633;50.980;13.850;2022-10-18T06:20:06;13.70;99.90
19000;DHT22;9633;50.980;13.850;2022-10-18T06:21:39;13.80;99.90
19000;DHT22;9633;50.980;13.850;2022-10-18T06:23:12;14.00;99.90
19000;DHT22;9633;50.980;13.850;2022-10-18T06:24:46;14.00;99.90
19000;DHT22;9633;50.980;13.850;2022-10-18T06:26:19;14.00;99.90
19000;DHT22;9633;50.980;13.850;2022-10-18T06:27:54;14.00;99.90
19000;DHT22;9633;50.980;13.850;2022-10-18T06:29:27;14.10;99.90
19000;DHT22;9633;50.980;13.850;2022-10-18T06:31:00;14.20;99.90
19000;DHT22;9633;50.980;13.850;2022-10-18T06:32:33;14.30;99.90
19000;DHT22;9633;50.980;13.850;2022-10-18T06:34:06;14.60;99.90
19000;DHT22;9633;50.980;13.850;2022-10-18T06:35:39;15.00;99.90
19000;DHT22;9633;50.980;13.850;2022-10-18T06:37:12;15.30;99.90
19000;DHT22;9633;50.980;13.850;2022-10-18T06:38:45;15.60;99.90
19000;DHT22;9633;50.980;13.850;2022-10-18T06:40:18;15.60;99.90
19000;DHT22;9633;50.980;13.850;2022-10-18T06:41:52;15.40;99.90
19000;DHT22;9633;50.980;13.850;2022-10-18T06:43:27;15.10;99.90
19000;DHT22;9633;50.980;13.850;2022-10-18T06:45:00;14.90;99.90
19000;DHT22;9633;50.980;13.850;2022-10-18T06:46:34;14.70;99.90
19000;DHT22;9633;50.980;13.850;2022-10-18T06:48:07;14.50;99.90
19000;DHT22;9633;50.980;13.850;2022-10-18T06:49:40;14.50;99.90
19000;DHT22;9633;50.980;13.850;2022-10-18T06:51:13;14.50;99.90
19000;DHT22;9633;50.980;13.850;2022-10-18T06:52:47;14.60;99.90
19000;DHT22;9633;50.980;13.850;2022-10-18T06:54:21;14.60;99.90
19000;DHT22;9633;50.980;13.850;2022-10-18T06:55:58;14.50;99.90
19000;DHT22;9633;50.980;13.850;2022-10-18T06:57:31;14.40;99.90
19000;DHT22;9633;50.980;13.850;2022-10-18T06:59:05;14.40;99.90
19000;DHT22;9633;50.980;13.850;2022-10-18T07:00:39;14.30;99.90
19000;DHT22;9633;50.980;13.850;2022-10-18T07:02:13;14.20;99.90
19000;DHT22;9633;50.980;13.850;2022-10-18T07:03:50;14.20;99.90
19000;DHT22;9633;50.980;13.850;2022-10-18T07:05:24;14.10;99.90
19000;DHT22;9633;50.980;13.850;2022-10-18T07:06:57;14.10;99.90
19000;DHT22;9633;50.980;13.850;2022-10-18T07:08:30;14.10;99.90
19000;DHT22;9633;50.980;13.850;2022-10-18T07:10:04;14.10;99.90
19000;DHT22;9633;50.980;13.850;2022-10-18T07:11:38;14.10;99.90
19000;DHT22;9633;50.980;13.850;2022-10-18T07:13:11;14.10;99.90
19000;DHT22;9633;50.980;13.850;2022-10-18T07:15:05;14.10;99.90
19000;DHT22;9633;50.980;13.850;2022-10-18T07:16:40;14.10;99.90
19000;DHT22;9633;50.980;13.850;2022-10-18T07:18:13;14.20;99.90
19000;DHT22;9633;50.980;13.850;2022-10-18T07:19:46;14.20;99.90
19000;DHT22;9633;50.980;13.850;2022-10-18T07:21:21;14.20;99.90
19000;DHT22;9633;50.980;13.850;2022-10-18T07:22:55;14.20;99.90
19000;DHT22;9633;50.980;13.850;2022-10-18T07:24:28;14.20;99.90
19000;DHT22;9633;50.980;13.850;2022-10-18T07:26:02;14.20;99.90
19000;DHT22;9633;50.980;13.850;2022-10-18T07:27:36;14.30;99.90
19000;DHT22;9633;50.980;13.850;2022-10-18T07:29:10;14.30;99.90
19000;DHT22;9633;50.980;13.850;2022-10-18T07:30:45;14.40;99.90
19000;DHT22;9633;50.980;13.850;2022-10-18T07:32:18;14.40;99.90
19000;DHT22;9633;50.980;13.850;2022-10-18T07:33:52;14.50;99.90
19000;DHT22;9633;50.980;13.850;2022-10-18T07:35:25;14.50;99.90
19000;DHT22;9633;50.980;13.850;2022-10-18T07:37:00;14.60;99.90
19000;DHT22;9633;50.980;13.850;2022-10-18T07:38:33;14.60;99.90
19000;DHT22;9633;50.980;13.850;2022-10-18T07:40:08;14.80;99.90
19000;DHT22;9633;50.980;13.850;2022-10-18T07:41:42;14.80;99.90
19000;DHT22;9633;50.980;13.850;2022-10-18T07:43:15;14.90;99.90
19000;DHT22;9633;50.980;13.850;2022-10-18T07:44:48;14.90;99.90
19000;DHT22;9633;50.980;13.850;2022-10-18T07:46:23;15.00;99.90
19000;DHT22;9633;50.980;13.850;2022-10-18T07:47:56;15.00;99.90
19000;DHT22;9633;50.980;13.850;2022-10-18T07:49:30;15.00;99.90
19000;DHT22;9633;50.980;13.850;2022-10-18T07:51:03;15.00;99.90
19000;DHT22;9633;50.980;13.850;2022-10-18T07:52:36;15.10;99.90
19000;DHT22;9633;50.980;13.850;2022-10-18T07:54:09;15.20;99.90
19000;DHT22;9633;50.980;13.850;2022-10-18T07:55:42;15.30;99.90
19000;DHT22;9633;50.980;13.850;2022-10-18T07:57:16;15.40;99.90
19000;DHT22;9633;50.980;13.850;2022-10-18T07:58:51;15.50;99.90
19000;DHT22;9633;50.980;13.850;2022-10-18T08:00:24;15.60;99.90
19000;DHT22;9633;50.980;13.850;2022-10-18T08:01:59;15.60;99.90
19000;DHT22;9633;50.980;13.850;2022-10-18T08:03:32;15.60;99.90
19000;DHT22;9633;50.980;13.850;2022-10-18T08:05:05;15.50;99.90
19000;DHT22;9633;50.980;13.850;2022-10-18T08:06:38;15.50;99.90
19000;DHT22;9633;50.980;13.850;2022-10-18T08:08:11;15.40;99.90
19000;DHT22;9633;50.980;13.850;2022-10-18T08:09:44;15.30;99.90
19000;DHT22;9633;50.980;13.850;2022-10-18T08:11:20;15.30;99.90
19000;DHT22;9633;50.980;13.850;2022-10-18T08:12:53;15.40;99.90
19000;DHT22;9633;50.980;13.850;2022-10-18T08:14:26;15.50;99.90
19000;DHT22;9633;50.980;13.850;2022-10-18T08:15:59;15.50;99.90
19000;DHT22;9633;50.980;13.850;2022-10-18T08:17:34;15.50;99.90
19000;DHT22;9633;50.980;13.850;2022-10-18T08:19:07;15.60;99.90
19000;DHT22;9633;50.980;13.850;2022-10-18T08:20:42;15.60;99.90
19000;DHT22;9633;50.980;13.850;2022-10-18T08:22:15;15.60;99.90
19000;DHT22;9633;50.980;13.850;2022-10-18T08:23:49;15.50;99.90
19000;DHT22;9633;50.980;13.850;2022-10-18T08:25:22;15.50;99.90
19000;DHT22;9633;50.980;13.850;2022-10-18T08:26:55;15.60;99.90
19000;DHT22;9633;50.980;13.850;2022-10-18T08:28:28;15.60;99.90
19000;DHT22;9633;50.980;13.850;2022-10-18T08:30:01;15.60;99.90
19000;DHT22;9633;50.980;13.850;2022-10-18T08:31:35;15.60;99.90
19000;DHT22;9633;50.980;13.850;2022-10-18T08:33:09;15.60;99.90
19000;DHT22;9633;50.980;13.850;2022-10-18T08:34:42;15.60;99.90
19000;DHT22;9633;50.980;13.850;2022-10-18T08:36:16;15.60;99.90
19000;DHT22;9633;50.980;13.850;2022-10-18T08:37:50;15.70;99.90
19000;DHT22;9633;50.980;13.850;2022-10-18T08:39:23;15.80;99.90
19000;DHT22;9633;50.980;13.850;2022-10-18T08:40:58;15.90;99.90
19000;DHT22;9633;50.980;13.850;2022-10-18T08:42:50;16.00;99.90
19000;DHT22;9633;50.980;13.850;2022-10-18T08:44:27;16.10;99.90
19000;DHT22;9633;50.980;13.850;2022-10-18T08:45:59;16.20;99.90
19000;DHT22;9633;50.980;13.850;2022-10-18T08:47:35;16.30;99.90
19000;DHT22;9633;50.980;13.850;2022-10-18T08:49:18;16.40;99.90
19000;DHT22;9633;50.980;13.850;2022-10-18T08:50:53;16.60;99.90
19000;DHT22;9633;50.980;13.850;2022-10-18T08:52:32;16.90;99.90
19000;DHT22;9633;50.980;13.850;2022-10-18T08:54:10;17.10;99.90
19000;DHT22;9633;50.980;13.850;2022-10-18T08:55:46;17.20;99.90
19000;DHT22;9633;50.980;13.850;2022-10-18T08:57:23;17.40;99.90
19000;DHT22;9633;50.980;13.850;2022-10-18T08:58:56;17.40;99.90
19000;DHT22;9633;50.980;13.850;2022-10-18T09:00:32;17.50;99.90
19000;DHT22;9633;50.980;13.850;2022-10-18T09:02:16;17.30;99.90
19000;DHT22;9633;50.980;13.850;2022-10-18T09:06:05;17.50;99.90
19000;DHT22;9633;50.980;13.850;2022-10-18T09:07:57;17.30;99.90
19000;DHT22;9633;50.980;13.850;2022-10-18T09:09:37;17.20;99.90
19000;DHT22;9633;50.980;13.850;2022-10-18T09:11:32;17.20;99.90
19000;DHT22;9633;50.980;13.850;2022-10-18T09:13:30;17.20;99.90
19000;DHT22;9633;50.980;13.850;2022-10-18T09:15:16;17.20;99.90
19000;DHT22;9633;50.980;13.850;2022-10-18T09:16:58;17.10;99.90
19000;DHT22;9633;50.980;13.850;2022-10-18T09:18:45;17.00;99.90
19000;DHT22;9633;50.980;13.850;2022-10-18T09:20:25;16.90;99.90
19000;DHT22;9633;50.980;13.850;2022-10-18T09:22:07;16.90;99.90
19000;DHT22;9633;50.980;13.850;2022-10-18T09:23:46;16.80;99.90
19000;DHT22;9633;50.980;13.850;2022-10-18T09:25:22;16.80;99.90
19000;DHT22;9633;50.980;13.850;2022-10-18T09:27:00;17.40;99.90
19000;DHT22;9633;50.980;13.850;2022-10-18T09:28:52;16.80;99.90
19000;DHT22;9633;50.980;13.850;2022-10-18T09:30:44;17.10;99.90
19000;DHT22;9633;50.980;13.850;2022-10-18T09:32:28;17.30;99.90
19000;DHT22;9633;50.980;13.850;2022-10-18T09:34:08;17.70;99.90
19000;DHT22;9633;50.980;13.850;2022-10-18T09:35:52;18.00;99.90
19000;DHT22;9633;50.980;13.850;2022-10-18T09:37:29;18.20;99.90
19000;DHT22;9633;50.980;13.850;2022-10-18T09:39:08;18.20;99.90
19000;DHT22;9633;50.980;13.850;2022-10-18T09:40:49;18.20;99.90
19000;DHT22;9633;50.980;13.850;2022-10-18T09:42:27;18.20;99.90
19000;DHT22;9633;50.980;13.850;2022-10-18T09:44:08;18.20;99.90
19000;DHT22;9633;50.980;13.850;2022-10-18T09:45:44;18.30;99.90
19000;DHT22;9633;50.980;13.850;2022-10-18T09:47:19;18.50;99.90
19000;DHT22;9633;50.980;13.850;2022-10-18T09:48:56;18.70;99.90
19000;DHT22;9633;50.980;13.850;2022-10-18T09:50:35;18.90;99.90
19000;DHT22;9633;50.980;13.850;2022-10-18T09:52:15;19.20;99.90
19000;DHT22;9633;50.980;13.850;2022-10-18T09:54:13;19.60;99.90
19000;DHT22;9633;50.980;13.850;2022-10-18T09:55:55;19.80;99.90
19000;DHT22;9633;50.980;13.850;2022-10-18T09:57:32;19.80;99.90
19000;DHT22;9633;50.980;13.850;2022-10-18T09:59:27;20.00;99.90
19000;DHT22;9633;50.980;13.850;2022-10-18T10:01:01;20.20;99.90
19000;DHT22;9633;50.980;13.850;2022-10-18T10:02:34;20.20;99.90
19000;DHT22;9633;50.980;13.850;2022-10-18T10:04:07;20.10;99.90
19000;DHT22;9633;50.980;13.850;2022-10-18T10:05:41;19.90;99.90
19000;DHT22;9633;50.980;13.850;2022-10-18T10:07:17;19.80;99.90
19000;DHT22;9633;50.980;13.850;2022-10-18T10:08:57;19.60;99.90